createdAt,value
2022-11-19T00:00:29.820Z,7.13
2022-11-19T00:05:31.303Z,7.13
2022-11-19T00:10:35.083Z,7.03
2022-11-19T00:15:37.516Z,6.96
2022-11-19T00:20:38.912Z,6.94
2022-11-19T00:25:40.292Z,6.95
2022-11-19T00:30:48.035Z,6.97
2022-11-19T00:35:50.020Z,7.03
2022-11-19T00:40:51.620Z,7.18
2022-11-19T00:45:53.024Z,7.22
2022-11-19T00:50:54.444Z,7.35
2022-11-19T00:55:55.926Z,7.44
2022-11-19T01:00:57.534Z,7.45
2022-11-19T01:05:59.366Z,7.38
2022-11-19T01:11:25.745Z,7.35
2022-11-19T01:16:33.140Z,7.39
2022-11-19T01:21:35.973Z,7.39
2022-11-19T01:26:40.520Z,7.44
2022-11-19T01:31:44.378Z,7.51
2022-11-19T01:36:45.845Z,7.59
2022-11-19T01:41:47.303Z,7.60
2022-11-19T01:46:48.703Z,7.65
2022-11-19T01:51:58.362Z,7.63
2022-11-19T01:57:03.012Z,7.63
2022-11-19T02:02:04.877Z,7.61
2022-11-19T02:07:09.427Z,7.61
2022-11-19T02:12:25.885Z,7.60
2022-11-19T02:18:00.705Z,7.57
2022-11-19T02:23:27.979Z,7.43
2022-11-19T02:28:43.278Z,7.39
2022-11-19T02:33:56.215Z,7.34
2022-11-19T02:39:12.103Z,7.43
2022-11-19T02:44:29.001Z,7.45
2022-11-19T02:49:34.100Z,7.47
2022-11-19T02:54:35.630Z,7.55
2022-11-19T02:59:41.644Z,7.57
2022-11-19T03:04:43.289Z,7.64
2022-11-19T03:09:52.879Z,7.64
2022-11-19T03:15:02.351Z,7.67
2022-11-19T03:20:24.952Z,7.61
2022-11-19T03:25:32.508Z,7.54
2022-11-19T03:30:34.314Z,7.52
2022-11-19T03:35:58.553Z,7.55
2022-11-19T03:41:03.126Z,7.52
2022-11-19T03:46:10.047Z,7.54
2022-11-19T03:51:17.728Z,7.56
2022-11-19T03:56:23.831Z,7.52
2022-11-19T04:01:25.365Z,7.53
2022-11-19T04:06:26.978Z,7.51
2022-11-19T04:11:28.368Z,7.67
2022-11-19T04:16:29.876Z,7.65
2022-11-19T04:21:31.402Z,7.53
2022-11-19T04:26:32.786Z,7.44
2022-11-19T04:31:34.209Z,7.35
2022-11-19T04:36:36.235Z,7.28
2022-11-19T04:41:38.749Z,7.23
2022-11-19T04:46:40.187Z,7.20
2022-11-19T04:51:41.601Z,7.23
2022-11-19T04:56:43.028Z,7.17
2022-11-19T05:01:44.473Z,7.12
2022-11-19T05:06:45.947Z,7.12
2022-11-19T05:11:47.380Z,7.10
2022-11-19T05:16:48.841Z,7.03
2022-11-19T05:21:50.294Z,7.02
2022-11-19T05:26:51.700Z,6.97
2022-11-19T05:31:53.143Z,6.85
2022-11-19T05:36:54.598Z,6.77
2022-11-19T05:41:56.566Z,6.60
2022-11-19T05:46:58.016Z,6.28
2022-11-19T05:51:59.491Z,6.13
2022-11-19T05:57:00.888Z,6.25
2022-11-19T06:02:02.370Z,6.35
2022-11-19T06:07:04.334Z,6.36
2022-11-19T06:12:06.150Z,6.39
2022-11-19T06:17:07.623Z,6.51
2022-11-19T06:22:09.893Z,6.52
2022-11-19T06:27:11.451Z,6.49
2022-11-19T06:32:12.853Z,6.41
2022-11-19T06:37:14.309Z,6.42
2022-11-19T06:42:15.801Z,6.37
2022-11-19T06:47:17.313Z,6.31
2022-11-19T06:52:18.711Z,6.23
2022-11-19T06:57:20.180Z,6.17
2022-11-19T07:02:21.943Z,6.15
2022-11-19T07:07:23.600Z,6.17
2022-11-19T07:12:25.181Z,6.24
2022-11-19T07:17:26.683Z,6.29
2022-11-19T07:22:28.073Z,6.37
2022-11-19T07:27:29.465Z,6.38
2022-11-19T07:32:30.903Z,6.45
2022-11-19T07:37:32.389Z,6.53
2022-11-19T07:42:33.818Z,6.63
2022-11-19T07:47:42.554Z,6.66
2022-11-19T07:52:44.451Z,6.74
2022-11-19T07:57:45.862Z,6.85
2022-11-19T08:02:47.253Z,7.06
2022-11-19T08:07:48.701Z,7.11
2022-11-19T08:12:50.136Z,7.22
2022-11-19T08:17:51.554Z,7.37
2022-11-19T08:22:53.042Z,7.48
2022-11-19T08:27:54.478Z,7.48
2022-11-19T08:32:56.061Z,7.49
2022-11-19T08:37:57.492Z,7.57
2022-11-19T08:42:58.915Z,7.63
2022-11-19T08:48:02.579Z,7.61
2022-11-19T08:53:05.467Z,7.68
2022-11-19T08:58:07.600Z,7.69
2022-11-19T09:03:09.028Z,7.79
2022-11-19T09:08:10.502Z,7.86
2022-11-19T09:13:11.916Z,8.11
2022-11-19T09:18:13.317Z,8.30
2022-11-19T09:23:14.767Z,8.50
2022-11-19T09:28:16.235Z,8.76
2022-11-19T09:33:17.649Z,9.23
2022-11-19T09:38:19.280Z,9.69
2022-11-19T09:43:53.239Z,10.07
2022-11-19T09:48:59.344Z,10.22
2022-11-19T09:54:13.134Z,10.21
2022-11-19T09:59:24.384Z,10.17
2022-11-19T10:04:31.477Z,10.19
2022-11-19T10:09:59.686Z,10.35
2022-11-19T10:15:29.245Z,10.46
2022-11-19T10:21:23.324Z,10.17
2022-11-19T10:26:39.077Z,10.03
2022-11-19T10:31:47.778Z,11.04
2022-11-19T10:36:49.141Z,11.74
2022-11-19T10:41:58.196Z,12.78
2022-11-19T10:47:00.739Z,12.89
2022-11-19T10:52:02.647Z,11.97
2022-11-19T10:57:04.232Z,11.68
2022-11-19T11:02:35.196Z,11.18
2022-11-19T11:07:50.789Z,10.72
2022-11-19T11:12:53.338Z,10.14
2022-11-19T11:18:03.547Z,10.07
2022-11-19T11:23:24.993Z,10.32
2022-11-19T11:28:26.491Z,10.79
2022-11-19T11:33:36.938Z,11.05
2022-11-19T11:38:44.912Z,11.01
2022-11-19T11:43:55.701Z,10.92
2022-11-19T11:49:04.000Z,11.02
2022-11-19T11:54:18.898Z,12.37
2022-11-19T11:59:29.942Z,16.56
2022-11-19T12:04:32.374Z,17.92
2022-11-19T12:10:03.008Z,15.95
2022-11-19T12:15:18.528Z,14.05
2022-11-19T12:20:47.383Z,12.69
2022-11-19T12:26:16.378Z,11.93
2022-11-19T12:31:42.368Z,11.36
2022-11-19T12:37:16.490Z,11.00
2022-11-19T12:42:42.741Z,10.71
2022-11-19T12:48:01.649Z,10.48
2022-11-19T12:53:19.051Z,10.26
2022-11-19T12:58:36.212Z,9.94
2022-11-19T13:04:14.268Z,9.82
2022-11-19T13:09:32.327Z,9.79
2022-11-19T13:14:44.543Z,9.88
2022-11-19T13:19:51.188Z,9.85
2022-11-19T13:25:18.332Z,9.79
2022-11-19T13:30:24.462Z,9.81
2022-11-19T13:35:49.202Z,9.92
2022-11-19T13:41:10.994Z,9.99
2022-11-19T13:46:24.711Z,10.12
2022-11-19T13:51:40.247Z,10.21
2022-11-19T13:56:48.378Z,10.32
2022-11-19T14:02:04.356Z,10.61
2022-11-19T14:07:32.042Z,10.52
2022-11-19T14:12:45.356Z,10.32
2022-11-19T14:18:14.067Z,10.26
2022-11-19T14:23:37.317Z,10.11
2022-11-19T14:28:50.538Z,10.03
2022-11-19T14:34:01.984Z,10.10
2022-11-19T14:39:12.010Z,10.15
2022-11-19T14:44:32.862Z,10.20
2022-11-19T14:49:36.904Z,10.22
2022-11-19T14:54:43.336Z,10.18
2022-11-19T14:59:48.567Z,10.17
2022-11-19T15:05:07.272Z,10.04
2022-11-19T15:10:09.789Z,9.99
2022-11-19T15:15:20.385Z,9.78
2022-11-19T15:20:33.468Z,9.67
2022-11-19T15:26:03.051Z,9.62
2022-11-19T15:31:43.871Z,9.59
2022-11-19T15:36:48.911Z,9.58
2022-11-19T15:41:55.708Z,9.52
2022-11-19T15:47:00.572Z,9.45
2022-11-19T15:52:17.337Z,9.38
2022-11-19T15:57:27.171Z,9.36
2022-11-19T16:02:33.224Z,9.27
2022-11-19T16:07:34.791Z,9.31
2022-11-19T16:12:36.313Z,9.25
2022-11-19T16:17:44.491Z,9.23
2022-11-19T16:22:48.530Z,9.20
2022-11-19T16:27:50.158Z,9.22
2022-11-19T16:32:51.885Z,9.12
2022-11-19T16:37:54.624Z,9.05
2022-11-19T16:42:59.637Z,8.99
2022-11-19T16:48:02.249Z,8.93
2022-11-19T16:53:06.316Z,8.84
2022-11-19T16:58:15.461Z,8.80
2022-11-19T17:03:22.783Z,8.85
2022-11-19T17:08:27.964Z,8.86
2022-11-19T17:13:32.040Z,8.83
2022-11-19T17:18:33.586Z,8.85
2022-11-19T17:23:47.713Z,8.80
2022-11-19T17:28:51.831Z,8.81
2022-11-19T17:34:06.968Z,8.78
2022-11-19T17:39:12.602Z,8.69
2022-11-19T17:44:23.088Z,8.60
2022-11-19T17:49:24.767Z,8.58
2022-11-19T17:54:26.499Z,8.46
2022-11-19T17:59:28.039Z,8.48
2022-11-19T18:04:29.496Z,8.36
2022-11-19T18:09:34.769Z,8.36
2022-11-19T18:14:36.555Z,8.29
2022-11-19T18:19:38.053Z,8.28
2022-11-19T18:24:39.514Z,8.35
2022-11-19T18:29:40.936Z,8.33
2022-11-19T18:34:43.572Z,8.01
2022-11-19T18:39:44.969Z,7.99
2022-11-19T18:44:46.515Z,7.91
2022-11-19T18:49:47.894Z,7.74
2022-11-19T18:54:49.368Z,7.76
2022-11-19T18:59:50.854Z,7.94
2022-11-19T19:04:52.348Z,8.07
2022-11-19T19:09:55.002Z,8.18
2022-11-19T19:14:56.519Z,8.20
2022-11-19T19:19:57.980Z,8.21
2022-11-19T19:24:59.453Z,8.18
2022-11-19T19:30:01.011Z,8.29
2022-11-19T19:35:02.484Z,8.32
2022-11-19T19:40:04.324Z,8.28
2022-11-19T19:45:06.258Z,8.20
2022-11-19T19:50:08.034Z,8.23
2022-11-19T19:55:09.549Z,8.23
2022-11-19T20:00:11.528Z,8.21
2022-11-19T20:05:15.949Z,8.13
2022-11-19T20:10:17.456Z,8.12
2022-11-19T20:15:19.108Z,8.03
2022-11-19T20:20:20.564Z,8.07
2022-11-19T20:25:22.023Z,8.05
2022-11-19T20:30:23.551Z,8.05
2022-11-19T20:35:25.009Z,8.04
2022-11-19T20:40:26.471Z,8.08
2022-11-19T20:45:27.946Z,8.11
2022-11-19T20:50:29.415Z,8.14
2022-11-19T20:55:30.881Z,8.11
2022-11-19T21:00:32.335Z,8.05
2022-11-19T21:05:33.754Z,8.02
2022-11-19T21:10:35.166Z,8.04
2022-11-19T21:15:36.592Z,7.97
2022-11-19T21:20:38.014Z,7.94
2022-11-19T21:25:39.506Z,7.89
2022-11-19T21:30:41.141Z,7.80
2022-11-19T21:35:42.568Z,7.72
2022-11-19T21:40:44.011Z,7.68
2022-11-19T21:45:45.911Z,7.59
2022-11-19T21:50:47.987Z,7.56
2022-11-19T21:55:49.454Z,7.47
2022-11-19T22:00:50.914Z,7.32
2022-11-19T22:06:05.646Z,7.29
2022-11-19T22:11:09.013Z,7.28
2022-11-19T22:16:10.419Z,7.29
2022-11-19T22:21:12.111Z,7.31
2022-11-19T22:26:14.439Z,7.26
2022-11-19T22:31:15.834Z,7.23
2022-11-19T22:36:19.064Z,7.15
2022-11-19T22:41:21.679Z,7.16
2022-11-19T22:46:23.204Z,7.10
2022-11-19T22:51:25.933Z,7.06
2022-11-19T22:56:29.345Z,6.98
2022-11-19T23:01:32.984Z,6.84
2022-11-19T23:06:36.004Z,6.83
2022-11-19T23:11:37.502Z,6.87
2022-11-19T23:16:40.322Z,6.96
2022-11-19T23:21:41.870Z,6.92
2022-11-19T23:26:43.357Z,6.98
2022-11-19T23:31:44.884Z,6.91
2022-11-19T23:36:46.377Z,6.92
2022-11-19T23:41:48.422Z,6.80
2022-11-19T23:46:49.857Z,6.69
2022-11-19T23:51:51.264Z,6.79
2022-11-19T23:56:52.787Z,6.76
